sensor_id;sensor_type;location;lat;lon;timestamp;P1;durP1;ratioP1;P2;durP2;ratioP2
76136;SDS011;68622;53.128;17.966;2023-07-20T00:00:36;8.60;;;4.40;;
76136;SDS011;68622;53.128;17.966;2023-07-20T00:03:22;9.30;;;4.30;;
76136;SDS011;68622;53.128;17.966;2023-07-20T00:05:51;10.10;;;4.20;;
76136;SDS011;68622;53.128;17.966;2023-07-20T00:08:18;10.20;;;4.50;;
76136;SDS011;68622;53.128;17.966;2023-07-20T00:10:46;11.10;;;4.30;;
76136;SDS011;68622;53.128;17.966;2023-07-20T00:13:12;8.50;;;3.90;;
76136;SDS011;68622;53.128;17.966;2023-07-20T00:15:39;9.20;;;4.30;;
76136;SDS011;68622;53.128;17.966;2023-07-20T00:18:06;10.80;;;3.90;;
76136;SDS011;68622;53.128;17.966;2023-07-20T00:20:33;9.60;;;4.40;;
76136;SDS011;68622;53.128;17.966;2023-07-20T00:22:59;10.30;;;4.30;;
76136;SDS011;68622;53.128;17.966;2023-07-20T00:25:26;8.00;;;4.20;;
76136;SDS011;68622;53.128;17.966;2023-07-20T00:27:52;9.80;;;4.40;;
76136;SDS011;68622;53.128;17.966;2023-07-20T00:30:20;8.60;;;3.70;;
76136;SDS011;68622;53.128;17.966;2023-07-20T00:32:47;10.30;;;4.20;;
76136;SDS011;68622;53.128;17.966;2023-07-20T00:35:13;9.80;;;4.50;;
76136;SDS011;68622;53.128;17.966;2023-07-20T00:37:40;9.80;;;4.50;;
76136;SDS011;68622;53.128;17.966;2023-07-20T00:40:07;11.70;;;4.20;;
76136;SDS011;68622;53.128;17.966;2023-07-20T00:42:34;8.70;;;4.40;;
76136;SDS011;68622;53.128;17.966;2023-07-20T00:45:02;7.90;;;4.00;;
76136;SDS011;68622;53.128;17.966;2023-07-20T00:47:29;8.30;;;4.20;;
76136;SDS011;68622;53.128;17.966;2023-07-20T00:49:59;9.70;;;3.90;;
76136;SDS011;68622;53.128;17.966;2023-07-20T00:52:26;10.30;;;4.50;;
76136;SDS011;68622;53.128;17.966;2023-07-20T00:54:55;8.20;;;3.60;;
76136;SDS011;68622;53.128;17.966;2023-07-20T00:57:22;8.50;;;4.20;;
76136;SDS011;68622;53.128;17.966;2023-07-20T00:59:51;10.50;;;4.00;;
76136;SDS011;68622;53.128;17.966;2023-07-20T01:02:18;12.40;;;5.00;;
76136;SDS011;68622;53.128;17.966;2023-07-20T01:04:45;12.60;;;4.30;;
76136;SDS011;68622;53.128;17.966;2023-07-20T01:07:13;9.20;;;4.40;;
76136;SDS011;68622;53.128;17.966;2023-07-20T01:09:56;8.40;;;4.00;;
76136;SDS011;68622;53.128;17.966;2023-07-20T01:12:33;8.30;;;4.10;;
76136;SDS011;68622;53.128;17.966;2023-07-20T01:15:07;8.30;;;4.50;;
76136;SDS011;68622;53.128;17.966;2023-07-20T01:17:34;9.90;;;4.30;;
76136;SDS011;68622;53.128;17.966;2023-07-20T01:20:01;9.00;;;4.30;;
76136;SDS011;68622;53.128;17.966;2023-07-20T01:25:34;7.80;;;3.90;;
76136;SDS011;68622;53.128;17.966;2023-07-20T01:33:55;7.60;;;4.30;;
76136;SDS011;68622;53.128;17.966;2023-07-20T01:36:24;9.00;;;4.20;;
76136;SDS011;68622;53.128;17.966;2023-07-20T01:38:53;8.90;;;4.60;;
76136;SDS011;68622;53.128;17.966;2023-07-20T01:41:21;11.70;;;4.40;;
76136;SDS011;68622;53.128;17.966;2023-07-20T01:43:47;10.10;;;4.40;;
76136;SDS011;68622;53.128;17.966;2023-07-20T01:46:16;11.30;;;4.50;;
76136;SDS011;68622;53.128;17.966;2023-07-20T01:48:43;9.80;;;4.50;;
76136;SDS011;68622;53.128;17.966;2023-07-20T01:51:09;11.10;;;5.00;;
76136;SDS011;68622;53.128;17.966;2023-07-20T01:53:36;8.30;;;4.50;;
76136;SDS011;68622;53.128;17.966;2023-07-20T01:56:03;8.80;;;4.40;;
76136;SDS011;68622;53.128;17.966;2023-07-20T01:58:29;11.40;;;4.70;;
76136;SDS011;68622;53.128;17.966;2023-07-20T02:00:56;10.00;;;5.30;;
76136;SDS011;68622;53.128;17.966;2023-07-20T02:03:22;10.60;;;5.30;;
76136;SDS011;68622;53.128;17.966;2023-07-20T02:05:52;10.90;;;5.30;;
76136;SDS011;68622;53.128;17.966;2023-07-20T02:08:18;9.00;;;4.70;;
76136;SDS011;68622;53.128;17.966;2023-07-20T02:10:46;9.30;;;4.30;;
76136;SDS011;68622;53.128;17.966;2023-07-20T02:13:14;13.90;;;5.30;;
76136;SDS011;68622;53.128;17.966;2023-07-20T02:15:41;8.30;;;4.60;;
76136;SDS011;68622;53.128;17.966;2023-07-20T02:18:09;10.40;;;4.80;;
76136;SDS011;68622;53.128;17.966;2023-07-20T02:20:35;10.10;;;4.50;;
76136;SDS011;68622;53.128;17.966;2023-07-20T02:23:02;8.50;;;4.10;;
76136;SDS011;68622;53.128;17.966;2023-07-20T02:25:29;11.30;;;4.60;;
76136;SDS011;68622;53.128;17.966;2023-07-20T02:27:56;9.40;;;4.70;;
76136;SDS011;68622;53.128;17.966;2023-07-20T02:30:23;8.50;;;4.40;;
76136;SDS011;68622;53.128;17.966;2023-07-20T02:32:50;10.30;;;4.90;;
76136;SDS011;68622;53.128;17.966;2023-07-20T02:35:16;8.10;;;4.00;;
76136;SDS011;68622;53.128;17.966;2023-07-20T02:37:43;8.70;;;4.20;;
76136;SDS011;68622;53.128;17.966;2023-07-20T02:40:10;8.00;;;4.00;;
76136;SDS011;68622;53.128;17.966;2023-07-20T02:42:37;9.90;;;4.30;;
76136;SDS011;68622;53.128;17.966;2023-07-20T02:45:04;7.80;;;3.60;;
76136;SDS011;68622;53.128;17.966;2023-07-20T02:47:31;8.60;;;4.10;;
76136;SDS011;68622;53.128;17.966;2023-07-20T02:49:58;8.30;;;3.90;;
76136;SDS011;68622;53.128;17.966;2023-07-20T02:52:25;9.00;;;3.80;;
76136;SDS011;68622;53.128;17.966;2023-07-20T02:54:51;9.40;;;4.10;;
76136;SDS011;68622;53.128;17.966;2023-07-20T02:57:18;8.00;;;4.00;;
76136;SDS011;68622;53.128;17.966;2023-07-20T02:59:44;11.40;;;3.90;;
76136;SDS011;68622;53.128;17.966;2023-07-20T03:02:11;10.20;;;4.00;;
76136;SDS011;68622;53.128;17.966;2023-07-20T03:04:38;8.70;;;3.80;;
76136;SDS011;68622;53.128;17.966;2023-07-20T03:07:04;7.90;;;4.20;;
76136;SDS011;68622;53.128;17.966;2023-07-20T03:09:31;9.80;;;4.50;;
76136;SDS011;68622;53.128;17.966;2023-07-20T03:11:58;10.20;;;3.90;;
76136;SDS011;68622;53.128;17.966;2023-07-20T03:14:26;8.80;;;3.90;;
76136;SDS011;68622;53.128;17.966;2023-07-20T03:16:52;6.90;;;3.70;;
76136;SDS011;68622;53.128;17.966;2023-07-20T03:19:19;7.20;;;3.40;;
76136;SDS011;68622;53.128;17.966;2023-07-20T03:21:46;11.70;;;4.10;;
76136;SDS011;68622;53.128;17.966;2023-07-20T03:24:12;10.90;;;4.30;;
76136;SDS011;68622;53.128;17.966;2023-07-20T03:26:39;8.80;;;3.60;;
76136;SDS011;68622;53.128;17.966;2023-07-20T03:29:06;6.90;;;3.40;;
76136;SDS011;68622;53.128;17.966;2023-07-20T03:31:33;7.20;;;3.00;;
76136;SDS011;68622;53.128;17.966;2023-07-20T03:33:59;8.10;;;3.60;;
76136;SDS011;68622;53.128;17.966;2023-07-20T03:36:26;8.10;;;4.10;;
76136;SDS011;68622;53.128;17.966;2023-07-20T03:38:52;7.10;;;3.10;;
76136;SDS011;68622;53.128;17.966;2023-07-20T03:41:19;7.30;;;3.70;;
76136;SDS011;68622;53.128;17.966;2023-07-20T03:43:48;7.40;;;3.50;;
76136;SDS011;68622;53.128;17.966;2023-07-20T03:46:15;7.50;;;3.50;;
76136;SDS011;68622;53.128;17.966;2023-07-20T03:48:42;9.00;;;3.50;;
76136;SDS011;68622;53.128;17.966;2023-07-20T03:51:08;6.30;;;3.00;;
76136;SDS011;68622;53.128;17.966;2023-07-20T03:53:35;7.40;;;3.60;;
76136;SDS011;68622;53.128;17.966;2023-07-20T03:56:01;7.90;;;4.00;;
76136;SDS011;68622;53.128;17.966;2023-07-20T03:58:28;8.50;;;3.70;;
76136;SDS011;68622;53.128;17.966;2023-07-20T04:00:56;7.90;;;3.30;;
76136;SDS011;68622;53.128;17.966;2023-07-20T04:03:23;9.00;;;3.70;;
76136;SDS011;68622;53.128;17.966;2023-07-20T04:05:53;7.30;;;3.30;;
76136;SDS011;68622;53.128;17.966;2023-07-20T04:08:24;10.30;;;3.60;;
76136;SDS011;68622;53.128;17.966;2023-07-20T04:10:51;7.60;;;3.20;;
76136;SDS011;68622;53.128;17.966;2023-07-20T04:13:18;7.60;;;3.50;;
76136;SDS011;68622;53.128;17.966;2023-07-20T04:15:45;7.60;;;3.50;;
76136;SDS011;68622;53.128;17.966;2023-07-20T04:18:11;8.00;;;3.50;;
76136;SDS011;68622;53.128;17.966;2023-07-20T04:20:38;8.30;;;3.30;;
76136;SDS011;68622;53.128;17.966;2023-07-20T04:23:05;7.90;;;3.40;;
76136;SDS011;68622;53.128;17.966;2023-07-20T04:25:32;7.80;;;3.60;;
76136;SDS011;68622;53.128;17.966;2023-07-20T04:28:06;9.20;;;3.70;;
76136;SDS011;68622;53.128;17.966;2023-07-20T04:30:38;8.00;;;3.60;;
76136;SDS011;68622;53.128;17.966;2023-07-20T04:33:06;8.10;;;3.40;;
76136;SDS011;68622;53.128;17.966;2023-07-20T04:38:19;7.60;;;3.60;;
76136;SDS011;68622;53.128;17.966;2023-07-20T04:40:50;7.90;;;3.40;;
76136;SDS011;68622;53.128;17.966;2023-07-20T04:43:17;6.50;;;3.50;;
76136;SDS011;68622;53.128;17.966;2023-07-20T04:45:45;8.00;;;3.80;;
76136;SDS011;68622;53.128;17.966;2023-07-20T04:48:13;9.70;;;3.60;;
76136;SDS011;68622;53.128;17.966;2023-07-20T04:50:48;8.80;;;4.00;;
76136;SDS011;68622;53.128;17.966;2023-07-20T04:53:15;5.80;;;2.60;;
76136;SDS011;68622;53.128;17.966;2023-07-20T04:55:47;8.30;;;2.80;;
76136;SDS011;68622;53.128;17.966;2023-07-20T04:58:18;7.00;;;3.10;;
76136;SDS011;68622;53.128;17.966;2023-07-20T05:00:46;13.90;;;3.10;;
76136;SDS011;68622;53.128;17.966;2023-07-20T05:03:12;7.00;;;2.40;;
76136;SDS011;68622;53.128;17.966;2023-07-20T05:05:39;7.20;;;2.60;;
76136;SDS011;68622;53.128;17.966;2023-07-20T05:08:06;8.30;;;3.00;;
76136;SDS011;68622;53.128;17.966;2023-07-20T05:10:32;6.30;;;2.90;;
76136;SDS011;68622;53.128;17.966;2023-07-20T05:12:59;7.00;;;2.80;;
76136;SDS011;68622;53.128;17.966;2023-07-20T05:15:26;6.40;;;2.80;;
76136;SDS011;68622;53.128;17.966;2023-07-20T05:17:54;13.30;;;3.40;;
76136;SDS011;68622;53.128;17.966;2023-07-20T05:20:20;7.50;;;3.30;;
76136;SDS011;68622;53.128;17.966;2023-07-20T05:22:47;7.30;;;2.70;;
76136;SDS011;68622;53.128;17.966;2023-07-20T05:25:14;11.30;;;3.20;;
76136;SDS011;68622;53.128;17.966;2023-07-20T05:27:44;8.80;;;2.60;;
76136;SDS011;68622;53.128;17.966;2023-07-20T05:30:12;6.20;;;2.70;;
76136;SDS011;68622;53.128;17.966;2023-07-20T05:32:39;6.00;;;2.30;;
76136;SDS011;68622;53.128;17.966;2023-07-20T05:35:06;11.00;;;2.80;;
76136;SDS011;68622;53.128;17.966;2023-07-20T05:37:33;8.00;;;2.70;;
76136;SDS011;68622;53.128;17.966;2023-07-20T05:39:59;7.30;;;2.90;;
76136;SDS011;68622;53.128;17.966;2023-07-20T05:42:26;7.40;;;3.10;;
76136;SDS011;68622;53.128;17.966;2023-07-20T05:44:53;9.00;;;3.60;;
76136;SDS011;68622;53.128;17.966;2023-07-20T05:47:20;7.40;;;3.20;;
76136;SDS011;68622;53.128;17.966;2023-07-20T05:49:47;7.00;;;2.60;;
76136;SDS011;68622;53.128;17.966;2023-07-20T05:52:14;8.70;;;3.50;;
76136;SDS011;68622;53.128;17.966;2023-07-20T05:54:40;7.70;;;2.90;;
76136;SDS011;68622;53.128;17.966;2023-07-20T05:57:07;8.00;;;2.90;;
76136;SDS011;68622;53.128;17.966;2023-07-20T05:59:34;8.90;;;3.10;;
76136;SDS011;68622;53.128;17.966;2023-07-20T06:02:00;6.80;;;2.70;;
76136;SDS011;68622;53.128;17.966;2023-07-20T06:04:27;10.30;;;5.20;;
76136;SDS011;68622;53.128;17.966;2023-07-20T06:06:53;6.90;;;3.00;;
76136;SDS011;68622;53.128;17.966;2023-07-20T06:09:20;6.50;;;2.20;;
76136;SDS011;68622;53.128;17.966;2023-07-20T06:11:47;6.40;;;2.10;;
76136;SDS011;68622;53.128;17.966;2023-07-20T06:14:13;8.70;;;3.00;;
76136;SDS011;68622;53.128;17.966;2023-07-20T06:16:40;6.20;;;2.80;;
76136;SDS011;68622;53.128;17.966;2023-07-20T06:19:06;5.00;;;1.60;;
76136;SDS011;68622;53.128;17.966;2023-07-20T06:21:33;7.40;;;2.00;;
76136;SDS011;68622;53.128;17.966;2023-07-20T06:24:00;5.60;;;1.80;;
76136;SDS011;68622;53.128;17.966;2023-07-20T06:26:26;7.70;;;2.00;;
76136;SDS011;68622;53.128;17.966;2023-07-20T06:28:53;6.50;;;2.10;;
76136;SDS011;68622;53.128;17.966;2023-07-20T06:31:19;5.70;;;2.00;;
76136;SDS011;68622;53.128;17.966;2023-07-20T06:33:46;5.50;;;2.00;;
76136;SDS011;68622;53.128;17.966;2023-07-20T06:36:12;5.70;;;2.00;;
76136;SDS011;68622;53.128;17.966;2023-07-20T06:38:39;5.80;;;1.60;;
76136;SDS011;68622;53.128;17.966;2023-07-20T06:41:06;6.40;;;1.60;;
76136;SDS011;68622;53.128;17.966;2023-07-20T06:43:32;5.10;;;1.80;;
76136;SDS011;68622;53.128;17.966;2023-07-20T06:45:59;6.50;;;1.70;;
76136;SDS011;68622;53.128;17.966;2023-07-20T06:48:25;4.40;;;1.80;;
76136;SDS011;68622;53.128;17.966;2023-07-20T06:50:52;9.60;;;1.80;;
76136;SDS011;68622;53.128;17.966;2023-07-20T06:53:19;6.40;;;2.20;;
76136;SDS011;68622;53.128;17.966;2023-07-20T06:55:46;5.70;;;1.70;;
76136;SDS011;68622;53.128;17.966;2023-07-20T06:58:12;6.30;;;2.00;;
76136;SDS011;68622;53.128;17.966;2023-07-20T07:00:39;5.00;;;1.90;;
76136;SDS011;68622;53.128;17.966;2023-07-20T07:03:06;6.70;;;1.80;;
76136;SDS011;68622;53.128;17.966;2023-07-20T07:05:36;7.30;;;2.30;;
76136;SDS011;68622;53.128;17.966;2023-07-20T07:08:04;5.70;;;1.80;;
76136;SDS011;68622;53.128;17.966;2023-07-20T07:10:31;4.30;;;1.50;;
76136;SDS011;68622;53.128;17.966;2023-07-20T07:12:58;5.70;;;1.80;;
76136;SDS011;68622;53.128;17.966;2023-07-20T07:15:25;4.90;;;1.60;;
76136;SDS011;68622;53.128;17.966;2023-07-20T07:17:54;7.60;;;1.90;;
76136;SDS011;68622;53.128;17.966;2023-07-20T07:20:21;6.70;;;2.10;;
76136;SDS011;68622;53.128;17.966;2023-07-20T07:22:50;4.60;;;1.60;;
76136;SDS011;68622;53.128;17.966;2023-07-20T07:25:18;8.10;;;2.00;;
76136;SDS011;68622;53.128;17.966;2023-07-20T07:27:45;6.70;;;1.90;;
76136;SDS011;68622;53.128;17.966;2023-07-20T07:30:12;5.30;;;1.30;;
76136;SDS011;68622;53.128;17.966;2023-07-20T07:32:39;8.70;;;2.60;;
76136;SDS011;68622;53.128;17.966;2023-07-20T07:35:05;9.50;;;2.00;;
76136;SDS011;68622;53.128;17.966;2023-07-20T07:37:32;5.60;;;1.40;;
76136;SDS011;68622;53.128;17.966;2023-07-20T07:39:59;4.60;;;1.60;;
76136;SDS011;68622;53.128;17.966;2023-07-20T07:42:25;3.90;;;1.10;;
76136;SDS011;68622;53.128;17.966;2023-07-20T07:44:52;6.10;;;1.70;;
76136;SDS011;68622;53.128;17.966;2023-07-20T07:47:18;5.50;;;1.50;;
76136;SDS011;68622;53.128;17.966;2023-07-20T07:49:45;5.10;;;1.10;;
76136;SDS011;68622;53.128;17.966;2023-07-20T07:52:12;6.20;;;1.30;;
76136;SDS011;68622;53.128;17.966;2023-07-20T07:54:40;4.20;;;1.10;;
76136;SDS011;68622;53.128;17.966;2023-07-20T07:57:07;5.40;;;1.70;;
76136;SDS011;68622;53.128;17.966;2023-07-20T07:59:33;4.40;;;1.60;;
76136;SDS011;68622;53.128;17.966;2023-07-20T08:02:04;6.10;;;1.40;;
76136;SDS011;68622;53.128;17.966;2023-07-20T08:04:31;4.00;;;1.40;;
76136;SDS011;68622;53.128;17.966;2023-07-20T08:06:58;5.20;;;1.30;;
76136;SDS011;68622;53.128;17.966;2023-07-20T08:09:25;3.50;;;1.20;;
76136;SDS011;68622;53.128;17.966;2023-07-20T08:11:52;4.70;;;1.30;;
76136;SDS011;68622;53.128;17.966;2023-07-20T08:14:18;3.60;;;1.30;;
76136;SDS011;68622;53.128;17.966;2023-07-20T08:16:46;4.90;;;1.20;;
76136;SDS011;68622;53.128;17.966;2023-07-20T08:19:13;4.80;;;1.20;;
76136;SDS011;68622;53.128;17.966;2023-07-20T08:21:40;6.30;;;1.20;;
76136;SDS011;68622;53.128;17.966;2023-07-20T08:24:06;4.80;;;1.60;;
76136;SDS011;68622;53.128;17.966;2023-07-20T08:26:33;4.90;;;1.60;;
76136;SDS011;68622;53.128;17.966;2023-07-20T08:29:00;4.10;;;1.10;;
76136;SDS011;68622;53.128;17.966;2023-07-20T08:31:26;4.60;;;1.10;;
76136;SDS011;68622;53.128;17.966;2023-07-20T08:33:54;4.90;;;1.00;;
76136;SDS011;68622;53.128;17.966;2023-07-20T08:36:23;8.10;;;1.40;;
76136;SDS011;68622;53.128;17.966;2023-07-20T08:38:50;4.30;;;1.40;;
76136;SDS011;68622;53.128;17.966;2023-07-20T08:41:17;4.70;;;1.70;;
76136;SDS011;68622;53.128;17.966;2023-07-20T08:43:44;4.20;;;1.40;;
76136;SDS011;68622;53.128;17.966;2023-07-20T08:46:13;5.00;;;1.40;;
76136;SDS011;68622;53.128;17.966;2023-07-20T08:48:40;3.90;;;1.00;;
76136;SDS011;68622;53.128;17.966;2023-07-20T08:51:09;3.80;;;1.30;;
76136;SDS011;68622;53.128;17.966;2023-07-20T08:53:37;3.00;;;1.10;;
76136;SDS011;68622;53.128;17.966;2023-07-20T08:56:04;6.10;;;1.10;;
76136;SDS011;68622;53.128;17.966;2023-07-20T08:58:32;4.50;;;1.30;;
76136;SDS011;68622;53.128;17.966;2023-07-20T09:01:01;4.60;;;1.30;;
76136;SDS011;68622;53.128;17.966;2023-07-20T09:03:28;5.30;;;1.50;;
76136;SDS011;68622;53.128;17.966;2023-07-20T09:05:55;4.60;;;1.50;;
76136;SDS011;68622;53.128;17.966;2023-07-20T09:08:22;4.70;;;1.00;;
76136;SDS011;68622;53.128;17.966;2023-07-20T09:10:48;3.50;;;1.10;;
76136;SDS011;68622;53.128;17.966;2023-07-20T09:13:15;5.80;;;1.20;;
76136;SDS011;68622;53.128;17.966;2023-07-20T09:15:46;7.20;;;1.50;;
76136;SDS011;68622;53.128;17.966;2023-07-20T09:18:23;4.40;;;1.40;;
76136;SDS011;68622;53.128;17.966;2023-07-20T09:21:01;7.40;;;1.50;;
76136;SDS011;68622;53.128;17.966;2023-07-20T09:23:30;5.00;;;1.10;;
76136;SDS011;68622;53.128;17.966;2023-07-20T09:26:12;3.60;;;0.90;;
76136;SDS011;68622;53.128;17.966;2023-07-20T09:28:47;3.60;;;0.90;;
76136;SDS011;68622;53.128;17.966;2023-07-20T09:31:20;4.90;;;1.30;;
76136;SDS011;68622;53.128;17.966;2023-07-20T09:33:48;5.20;;;1.10;;
76136;SDS011;68622;53.128;17.966;2023-07-20T09:36:18;2.70;;;1.00;;
76136;SDS011;68622;53.128;17.966;2023-07-20T09:38:44;3.80;;;1.10;;
76136;SDS011;68622;53.128;17.966;2023-07-20T09:41:15;3.10;;;1.20;;
76136;SDS011;68622;53.128;17.966;2023-07-20T09:43:42;2.70;;;1.00;;
76136;SDS011;68622;53.128;17.966;2023-07-20T09:46:08;2.70;;;0.90;;
76136;SDS011;68622;53.128;17.966;2023-07-20T09:48:35;3.60;;;1.10;;
76136;SDS011;68622;53.128;17.966;2023-07-20T09:51:02;3.40;;;1.10;;
76136;SDS011;68622;53.128;17.966;2023-07-20T09:53:32;3.70;;;1.00;;
76136;SDS011;68622;53.128;17.966;2023-07-20T09:55:59;5.10;;;1.20;;
76136;SDS011;68622;53.128;17.966;2023-07-20T09:58:29;3.50;;;1.10;;
76136;SDS011;68622;53.128;17.966;2023-07-20T10:00:59;4.40;;;1.20;;
76136;SDS011;68622;53.128;17.966;2023-07-20T10:03:33;4.70;;;1.10;;
76136;SDS011;68622;53.128;17.966;2023-07-20T10:06:05;5.50;;;1.30;;
76136;SDS011;68622;53.128;17.966;2023-07-20T10:08:38;4.00;;;1.10;;
76136;SDS011;68622;53.128;17.966;2023-07-20T10:11:07;4.20;;;1.10;;
76136;SDS011;68622;53.128;17.966;2023-07-20T10:13:38;4.70;;;1.10;;
76136;SDS011;68622;53.128;17.966;2023-07-20T10:16:10;2.60;;;0.90;;
76136;SDS011;68622;53.128;17.966;2023-07-20T10:18:41;2.60;;;0.90;;
76136;SDS011;68622;53.128;17.966;2023-07-20T10:21:08;4.00;;;1.00;;
76136;SDS011;68622;53.128;17.966;2023-07-20T10:23:36;3.80;;;1.00;;
76136;SDS011;68622;53.128;17.966;2023-07-20T10:26:05;5.20;;;1.10;;
76136;SDS011;68622;53.128;17.966;2023-07-20T10:28:32;3.80;;;1.00;;
76136;SDS011;68622;53.128;17.966;2023-07-20T10:30:59;3.50;;;1.00;;
76136;SDS011;68622;53.128;17.966;2023-07-20T10:33:26;3.20;;;1.10;;
76136;SDS011;68622;53.128;17.966;2023-07-20T10:35:54;6.00;;;1.40;;
76136;SDS011;68622;53.128;17.966;2023-07-20T10:44:00;6.10;;;1.10;;
76136;SDS011;68622;53.128;17.966;2023-07-20T10:46:36;3.60;;;1.10;;
76136;SDS011;68622;53.128;17.966;2023-07-20T10:49:11;2.90;;;0.90;;
76136;SDS011;68622;53.128;17.966;2023-07-20T10:51:42;3.10;;;1.00;;
76136;SDS011;68622;53.128;17.966;2023-07-20T10:56:44;3.60;;;1.10;;
76136;SDS011;68622;53.128;17.966;2023-07-20T10:59:20;3.70;;;1.10;;
76136;SDS011;68622;53.128;17.966;2023-07-20T11:02:05;3.20;;;1.10;;
76136;SDS011;68622;53.128;17.966;2023-07-20T11:04:39;3.10;;;1.00;;
76136;SDS011;68622;53.128;17.966;2023-07-20T11:07:10;3.20;;;1.00;;
76136;SDS011;68622;53.128;17.966;2023-07-20T11:09:45;5.10;;;1.50;;
76136;SDS011;68622;53.128;17.966;2023-07-20T11:12:14;2.80;;;0.90;;
76136;SDS011;68622;53.128;17.966;2023-07-20T11:14:58;3.00;;;0.90;;
76136;SDS011;68622;53.128;17.966;2023-07-20T11:17:29;4.40;;;1.30;;
76136;SDS011;68622;53.128;17.966;2023-07-20T11:19:57;3.20;;;1.20;;
76136;SDS011;68622;53.128;17.966;2023-07-20T11:22:27;4.40;;;1.40;;
76136;SDS011;68622;53.128;17.966;2023-07-20T11:24:57;3.50;;;1.10;;
76136;SDS011;68622;53.128;17.966;2023-07-20T11:27:24;4.10;;;1.20;;
76136;SDS011;68622;53.128;17.966;2023-07-20T11:29:51;2.60;;;1.00;;
76136;SDS011;68622;53.128;17.966;2023-07-20T11:32:21;4.80;;;1.10;;
76136;SDS011;68622;53.128;17.966;2023-07-20T11:34:49;5.90;;;0.80;;
76136;SDS011;68622;53.128;17.966;2023-07-20T11:37:17;3.60;;;1.10;;
76136;SDS011;68622;53.128;17.966;2023-07-20T11:39:44;3.60;;;1.20;;
76136;SDS011;68622;53.128;17.966;2023-07-20T11:42:11;5.50;;;1.20;;
76136;SDS011;68622;53.128;17.966;2023-07-20T11:44:38;7.00;;;1.80;;
76136;SDS011;68622;53.128;17.966;2023-07-20T11:47:06;13.40;;;1.70;;
76136;SDS011;68622;53.128;17.966;2023-07-20T11:49:39;8.10;;;1.50;;
76136;SDS011;68622;53.128;17.966;2023-07-20T11:52:15;4.80;;;1.20;;
76136;SDS011;68622;53.128;17.966;2023-07-20T11:54:43;5.70;;;1.10;;
76136;SDS011;68622;53.128;17.966;2023-07-20T11:57:17;7.20;;;1.60;;
76136;SDS011;68622;53.128;17.966;2023-07-20T11:59:53;6.60;;;1.50;;
76136;SDS011;68622;53.128;17.966;2023-07-20T12:02:24;5.90;;;1.80;;
76136;SDS011;68622;53.128;17.966;2023-07-20T12:04:53;3.70;;;1.10;;
76136;SDS011;68622;53.128;17.966;2023-07-20T12:07:21;4.60;;;1.10;;
76136;SDS011;68622;53.128;17.966;2023-07-20T12:12:35;5.90;;;1.40;;
76136;SDS011;68622;53.128;17.966;2023-07-20T12:17:50;5.70;;;1.00;;
76136;SDS011;68622;53.128;17.966;2023-07-20T12:20:38;3.50;;;0.80;;
76136;SDS011;68622;53.128;17.966;2023-07-20T12:23:09;2.50;;;0.80;;
76136;SDS011;68622;53.128;17.966;2023-07-20T12:28:08;4.10;;;1.00;;
76136;SDS011;68622;53.128;17.966;2023-07-20T12:30:38;5.10;;;1.10;;
76136;SDS011;68622;53.128;17.966;2023-07-20T12:33:07;3.40;;;1.00;;
76136;SDS011;68622;53.128;17.966;2023-07-20T12:35:34;5.20;;;1.10;;
76136;SDS011;68622;53.128;17.966;2023-07-20T12:38:01;5.20;;;1.50;;
76136;SDS011;68622;53.128;17.966;2023-07-20T12:40:29;3.70;;;1.20;;
76136;SDS011;68622;53.128;17.966;2023-07-20T12:42:56;5.20;;;1.10;;
76136;SDS011;68622;53.128;17.966;2023-07-20T12:45:24;5.50;;;1.60;;
76136;SDS011;68622;53.128;17.966;2023-07-20T12:47:51;6.90;;;1.40;;
76136;SDS011;68622;53.128;17.966;2023-07-20T12:50:18;4.40;;;1.40;;
76136;SDS011;68622;53.128;17.966;2023-07-20T12:52:45;5.50;;;1.50;;
76136;SDS011;68622;53.128;17.966;2023-07-20T12:55:12;4.30;;;1.60;;
76136;SDS011;68622;53.128;17.966;2023-07-20T12:57:40;4.70;;;1.40;;
76136;SDS011;68622;53.128;17.966;2023-07-20T13:00:08;4.30;;;1.30;;
76136;SDS011;68622;53.128;17.966;2023-07-20T13:02:37;7.60;;;1.20;;
76136;SDS011;68622;53.128;17.966;2023-07-20T13:05:04;3.80;;;1.00;;
76136;SDS011;68622;53.128;17.966;2023-07-20T13:07:32;4.30;;;1.10;;
76136;SDS011;68622;53.128;17.966;2023-07-20T13:10:03;4.00;;;1.20;;
76136;SDS011;68622;53.128;17.966;2023-07-20T13:12:32;3.60;;;1.00;;
76136;SDS011;68622;53.128;17.966;2023-07-20T13:15:02;3.60;;;1.10;;
76136;SDS011;68622;53.128;17.966;2023-07-20T13:17:33;4.20;;;1.10;;
76136;SDS011;68622;53.128;17.966;2023-07-20T13:20:07;5.10;;;1.30;;
76136;SDS011;68622;53.128;17.966;2023-07-20T13:22:36;3.50;;;1.00;;
76136;SDS011;68622;53.128;17.966;2023-07-20T13:25:04;3.50;;;1.10;;
76136;SDS011;68622;53.128;17.966;2023-07-20T13:27:31;3.40;;;0.90;;
76136;SDS011;68622;53.128;17.966;2023-07-20T13:29:58;2.80;;;1.10;;
76136;SDS011;68622;53.128;17.966;2023-07-20T13:32:26;3.20;;;1.10;;
76136;SDS011;68622;53.128;17.966;2023-07-20T13:34:53;3.80;;;1.10;;
76136;SDS011;68622;53.128;17.966;2023-07-20T13:37:20;3.40;;;0.90;;
76136;SDS011;68622;53.128;17.966;2023-07-20T13:39:47;2.40;;;1.00;;
76136;SDS011;68622;53.128;17.966;2023-07-20T13:42:14;2.70;;;0.80;;
76136;SDS011;68622;53.128;17.966;2023-07-20T13:44:41;2.00;;;0.80;;
76136;SDS011;68622;53.128;17.966;2023-07-20T13:47:07;3.50;;;0.80;;
76136;SDS011;68622;53.128;17.966;2023-07-20T13:49:34;2.30;;;1.00;;
76136;SDS011;68622;53.128;17.966;2023-07-20T13:52:01;4.00;;;0.90;;
76136;SDS011;68622;53.128;17.966;2023-07-20T13:54:28;1.60;;;0.60;;
76136;SDS011;68622;53.128;17.966;2023-07-20T13:56:54;2.30;;;0.70;;
76136;SDS011;68622;53.128;17.966;2023-07-20T13:59:21;3.80;;;0.70;;
76136;SDS011;68622;53.128;17.966;2023-07-20T14:01:48;1.50;;;0.50;;
76136;SDS011;68622;53.128;17.966;2023-07-20T14:04:15;1.80;;;0.50;;
76136;SDS011;68622;53.128;17.966;2023-07-20T14:06:42;1.80;;;0.60;;
76136;SDS011;68622;53.128;17.966;2023-07-20T14:09:09;2.20;;;0.60;;
76136;SDS011;68622;53.128;17.966;2023-07-20T14:11:35;2.50;;;0.60;;
76136;SDS011;68622;53.128;17.966;2023-07-20T14:14:02;3.90;;;0.80;;
76136;SDS011;68622;53.128;17.966;2023-07-20T14:16:29;2.80;;;0.70;;
76136;SDS011;68622;53.128;17.966;2023-07-20T14:18:55;1.60;;;0.60;;
76136;SDS011;68622;53.128;17.966;2023-07-20T14:21:22;2.40;;;0.70;;
76136;SDS011;68622;53.128;17.966;2023-07-20T14:23:50;2.30;;;0.70;;
76136;SDS011;68622;53.128;17.966;2023-07-20T14:26:19;2.70;;;1.10;;
76136;SDS011;68622;53.128;17.966;2023-07-20T14:28:45;1.80;;;0.70;;
76136;SDS011;68622;53.128;17.966;2023-07-20T14:31:12;5.20;;;0.80;;
76136;SDS011;68622;53.128;17.966;2023-07-20T14:33:42;2.00;;;0.50;;
76136;SDS011;68622;53.128;17.966;2023-07-20T14:36:09;4.30;;;1.00;;
76136;SDS011;68622;53.128;17.966;2023-07-20T14:38:36;2.80;;;0.60;;
76136;SDS011;68622;53.128;17.966;2023-07-20T14:41:03;2.80;;;0.70;;
76136;SDS011;68622;53.128;17.966;2023-07-20T14:43:32;2.40;;;0.60;;
76136;SDS011;68622;53.128;17.966;2023-07-20T14:45:58;3.40;;;0.40;;
76136;SDS011;68622;53.128;17.966;2023-07-20T14:48:25;2.20;;;0.40;;
76136;SDS011;68622;53.128;17.966;2023-07-20T14:50:52;0.80;;;0.30;;
76136;SDS011;68622;53.128;17.966;2023-07-20T14:53:19;3.80;;;0.60;;
76136;SDS011;68622;53.128;17.966;2023-07-20T14:55:46;2.70;;;0.50;;
76136;SDS011;68622;53.128;17.966;2023-07-20T14:58:13;1.50;;;0.40;;
76136;SDS011;68622;53.128;17.966;2023-07-20T15:00:39;4.90;;;0.60;;
76136;SDS011;68622;53.128;17.966;2023-07-20T15:03:06;2.40;;;0.60;;
76136;SDS011;68622;53.128;17.966;2023-07-20T15:05:36;4.60;;;1.90;;